Time,TemperatureF,DewpointF,PressureIn,WindDirection,WindDirectionDegrees,WindSpeedMPH,WindSpeedGustMPH,Humidity,HourlyPrecipIn,Conditions,Clouds,dailyrainin,SoftwareType,DateUTC
2013-06-26 00:00:00,69.8,65.1,29.12,NNE,22,0.0,0.0,85,0.00,,,0.00,Weather View 32 v70,2013-06-26 04:00:00,
2013-06-26 00:10:00,70.2,65.8,29.12,NNE,22,0.0,0.0,86,0.00,,,0.00,Weather View 32 v70,2013-06-26 04:10:00,
2013-06-26 00:20:00,70.3,65.9,29.12,NNE,22,0.0,0.0,86,0.00,,,0.00,Weather View 32 v70,2013-06-26 04:20:00,
2013-06-26 00:30:00,70.5,66.1,29.12,SSW,199,0.0,3.0,86,0.00,,,0.00,Weather View 32 v70,2013-06-26 04:30:00,
2013-06-26 00:38:00,70.5,66.1,29.12,SSW,199,0.0,3.0,86,0.00,,,0.00,Weather View 32 v70,2013-06-26 04:38:00,
2013-06-26 00:50:00,70.2,62.6,29.12,SSW,199,0.0,3.0,77,0.00,,,0.00,Weather View 32 v70,2013-06-26 04:50:00,
2013-06-26 01:00:00,70.2,61.8,29.12,SSW,199,0.0,3.0,75,0.00,,,0.00,Weather View 32 v70,2013-06-26 05:00:00,
2013-06-26 01:10:00,70.0,61.3,29.12,SSW,204,3.0,3.0,74,0.00,,,0.00,Weather View 32 v70,2013-06-26 05:10:00,
2013-06-26 01:20:00,69.6,60.9,29.12,SSW,213,2.0,4.0,74,0.00,,,0.00,Weather View 32 v70,2013-06-26 05:20:00,
2013-06-26 01:30:00,69.3,60.6,29.15,South,181,0.0,4.0,74,0.00,,,0.00,Weather View 32 v70,2013-06-26 05:30:00,
2013-06-26 01:39:00,69.3,60.6,29.15,South,181,0.0,4.0,74,0.00,,,0.00,Weather View 32 v70,2013-06-26 05:39:00,
2013-06-26 01:50:00,68.7,60.4,29.12,South,181,0.0,4.0,75,0.00,,,0.00,Weather View 32 v70,2013-06-26 05:50:00,
2013-06-26 02:00:00,68.5,60.6,29.12,South,181,0.0,4.0,76,0.00,,,0.00,Weather View 32 v70,2013-06-26 06:00:00,
2013-06-26 02:10:00,68.2,60.3,29.12,South,181,0.0,4.0,76,0.00,,,0.00,Weather View 32 v70,2013-06-26 06:10:00,
2013-06-26 02:20:00,67.8,60.3,29.12,South,181,0.0,4.0,77,0.00,,,0.00,Weather View 32 v70,2013-06-26 06:20:00,
2013-06-26 02:30:00,67.5,60.0,29.09,South,181,0.0,0.0,77,0.00,,,0.00,Weather View 32 v70,2013-06-26 06:30:00,
2013-06-26 02:40:00,67.1,60.0,29.09,South,181,0.0,0.0,78,0.00,,,0.00,Weather View 32 v70,2013-06-26 06:40:00,
2013-06-26 02:50:00,66.7,60.0,29.09,South,181,0.0,0.0,79,0.00,,,0.00,Weather View 32 v70,2013-06-26 06:50:00,
2013-06-26 03:00:00,66.2,59.5,29.09,South,181,0.0,0.0,79,0.00,,,0.00,Weather View 32 v70,2013-06-26 07:00:00,
2013-06-26 03:10:00,66.0,59.7,29.09,South,181,0.0,0.0,80,0.00,,,0.00,Weather View 32 v70,2013-06-26 07:10:00,
2013-06-26 03:20:00,65.8,59.8,29.09,South,181,0.0,0.0,81,0.00,,,0.00,Weather View 32 v70,2013-06-26 07:20:00,
2013-06-26 03:30:00,65.8,59.8,29.09,South,181,0.0,0.0,81,0.00,,,0.00,Weather View 32 v70,2013-06-26 07:30:00,
2013-06-26 03:41:00,65.8,59.8,29.09,South,181,0.0,0.0,81,0.00,,,0.00,Weather View 32 v70,2013-06-26 07:41:00,
2013-06-26 03:50:00,65.7,59.7,29.09,South,181,0.0,0.0,81,0.00,,,0.00,Weather View 32 v70,2013-06-26 07:50:00,
2013-06-26 04:00:00,65.5,59.8,29.09,South,181,0.0,0.0,82,0.00,,,0.00,Weather View 32 v70,2013-06-26 08:00:00,
2013-06-26 04:10:00,64.9,59.3,29.09,South,181,0.0,0.0,82,0.00,,,0.00,Weather View 32 v70,2013-06-26 08:10:00,
2013-06-26 04:20:00,64.8,59.5,29.09,South,181,0.0,0.0,83,0.00,,,0.00,Weather View 32 v70,2013-06-26 08:20:00,
2013-06-26 04:30:00,64.6,60.0,29.09,South,181,0.0,0.0,85,0.00,,,0.00,Weather View 32 v70,2013-06-26 08:30:00,
2013-06-26 04:40:00,64.6,60.6,29.09,South,181,0.0,0.0,87,0.00,,,0.00,Weather View 32 v70,2013-06-26 08:40:00,
2013-06-26 04:50:00,64.6,60.9,29.09,South,181,0.0,0.0,88,0.00,,,0.00,Weather View 32 v70,2013-06-26 08:50:00,
2013-06-26 05:00:00,64.9,61.6,29.09,South,181,0.0,0.0,89,0.00,,,0.00,Weather View 32 v70,2013-06-26 09:00:00,
2013-06-26 05:10:00,65.1,62.1,29.09,South,181,0.0,0.0,90,0.00,,,0.00,Weather View 32 v70,2013-06-26 09:10:00,
2013-06-26 05:20:00,65.3,62.3,29.09,South,181,0.0,0.0,90,0.00,,,0.00,Weather View 32 v70,2013-06-26 09:20:00,
2013-06-26 05:30:00,65.3,62.3,29.09,South,181,0.0,0.0,90,0.00,,,0.00,Weather View 32 v70,2013-06-26 09:30:00,
2013-06-26 05:40:00,65.1,62.4,29.09,South,181,0.0,0.0,91,0.00,,,0.00,Weather View 32 v70,2013-06-26 09:40:00,
2013-06-26 05:50:00,64.8,62.1,29.09,South,181,0.0,0.0,91,0.00,,,0.00,Weather View 32 v70,2013-06-26 09:50:00,
2013-06-26 06:00:00,64.6,61.9,29.09,South,181,0.0,0.0,91,0.00,,,0.00,Weather View 32 v70,2013-06-26 10:00:00,
2013-06-26 06:10:00,64.8,62.1,29.09,South,181,0.0,0.0,91,0.00,,,0.00,Weather View 32 v70,2013-06-26 10:10:00,
2013-06-26 06:20:00,64.8,62.1,29.09,South,181,0.0,0.0,91,0.00,,,0.00,Weather View 32 v70,2013-06-26 10:20:00,
2013-06-26 06:30:00,64.6,61.9,29.09,South,181,0.0,0.0,91,0.00,,,0.00,Weather View 32 v70,2013-06-26 10:30:00,
2013-06-26 06:40:00,64.4,61.7,29.09,South,181,0.0,0.0,91,0.00,,,0.00,Weather View 32 v70,2013-06-26 10:40:00,
2013-06-26 06:50:00,64.6,61.9,29.09,South,181,0.0,0.0,91,0.00,,,0.00,Weather View 32 v70,2013-06-26 10:50:00,
2013-06-26 07:00:00,64.9,62.6,29.12,South,181,0.0,0.0,92,0.00,,,0.00,Weather View 32 v70,2013-06-26 11:00:00,
2013-06-26 07:10:00,65.1,62.7,29.12,South,181,0.0,0.0,92,0.00,,,0.00,Weather View 32 v70,2013-06-26 11:10:00,
2013-06-26 07:20:00,65.5,63.1,29.12,South,181,0.0,0.0,92,0.00,,,0.00,Weather View 32 v70,2013-06-26 11:20:00,
2013-06-26 07:29:00,65.8,63.8,29.12,South,181,0.0,0.0,93,0.00,,,0.00,Weather View 32 v70,2013-06-26 11:29:00,
2013-06-26 07:40:00,66.2,64.1,29.12,South,181,0.0,0.0,93,0.00,,,0.00,Weather View 32 v70,2013-06-26 11:40:00,
2013-06-26 07:50:00,66.6,64.5,29.12,South,181,0.0,0.0,93,0.00,,,0.00,Weather View 32 v70,2013-06-26 11:50:00,
2013-06-26 08:00:00,66.9,65.1,29.12,South,181,0.0,0.0,94,0.00,,,0.00,Weather View 32 v70,2013-06-26 12:00:00,
2013-06-26 08:10:00,67.5,65.4,29.12,South,181,0.0,0.0,93,0.00,,,0.00,Weather View 32 v70,2013-06-26 12:10:00,
2013-06-26 08:20:00,67.8,65.4,29.12,South,181,0.0,0.0,92,0.00,,,0.00,Weather View 32 v70,2013-06-26 12:20:00,
2013-06-26 08:30:00,68.2,65.1,29.12,South,181,0.0,0.0,90,0.00,,,0.00,Weather View 32 v70,2013-06-26 12:30:00,
2013-06-26 08:39:00,68.4,64.3,29.12,South,181,0.0,0.0,87,0.00,,,0.00,Weather View 32 v70,2013-06-26 12:39:00,
2013-06-26 08:45:00,68.4,64.3,29.12,South,181,0.0,0.0,87,0.00,,,0.00,Weather View 32 v70,2013-06-26 12:45:00,
2013-06-26 09:00:00,69.8,61.9,29.12,South,189,0.0,0.0,76,0.00,,,0.00,Weather View 32 v70,2013-06-26 13:00:00,
2013-06-26 09:10:00,70.5,62.2,29.12,SW,228,0.0,0.0,75,0.00,,,0.00,Weather View 32 v70,2013-06-26 13:10:00,
2013-06-26 09:20:00,71.1,60.7,29.12,SW,216,0.0,0.0,70,0.00,,,0.00,Weather View 32 v70,2013-06-26 13:20:00,
2013-06-26 09:30:00,71.2,60.1,29.12,South,185,0.0,0.0,68,0.00,,,0.00,Weather View 32 v70,2013-06-26 13:30:00,
2013-06-26 09:40:00,72.0,61.2,29.12,SW,214,3.0,4.0,69,0.00,,,0.00,Weather View 32 v70,2013-06-26 13:40:00,
2013-06-26 09:46:00,72.0,61.2,29.12,SW,214,3.0,4.0,69,0.00,,,0.00,Weather View 32 v70,2013-06-26 13:46:00,
2013-06-26 10:00:00,73.4,60.0,29.12,South,183,2.0,4.0,63,0.00,,,0.00,Weather View 32 v70,2013-06-26 14:00:00,
2013-06-26 10:10:00,73.9,59.6,29.12,SSW,213,3.0,4.0,61,0.00,,,0.00,Weather View 32 v70,2013-06-26 14:10:00,
2013-06-26 10:19:00,74.1,57.4,29.12,SSW,209,0.0,4.0,56,0.00,,,0.00,Weather View 32 v70,2013-06-26 14:19:00,
2013-06-26 10:30:00,75.4,58.5,29.12,South,191,0.0,4.0,56,0.00,,,0.00,Weather View 32 v70,2013-06-26 14:30:00,
2013-06-26 10:40:00,74.8,60.4,29.12,SSW,199,0.0,4.0,61,0.00,,,0.00,Weather View 32 v70,2013-06-26 14:40:00,
2013-06-26 10:46:00,74.8,60.4,29.12,SSW,199,0.0,4.0,61,0.00,,,0.00,Weather View 32 v70,2013-06-26 14:46:00,
2013-06-26 11:00:00,77.4,56.6,29.12,South,189,3.0,4.0,49,0.00,,,0.00,Weather View 32 v70,2013-06-26 15:00:00,
2013-06-26 11:10:00,77.2,57.6,29.12,SSW,205,3.0,4.0,51,0.00,,,0.00,Weather View 32 v70,2013-06-26 15:10:00,
2013-06-26 11:20:00,76.8,59.9,29.12,SW,222,3.0,4.0,56,0.00,,,0.00,Weather View 32 v70,2013-06-26 15:20:00,
2013-06-26 11:30:00,77.9,56.6,29.12,South,186,0.0,4.0,48,0.00,,,0.00,Weather View 32 v70,2013-06-26 15:30:00,
2013-06-26 11:39:00,78.3,58.6,29.12,South,174,0.0,4.0,51,0.00,,,0.00,Weather View 32 v70,2013-06-26 15:39:00,
2013-06-26 11:47:00,78.3,58.6,29.12,South,174,0.0,4.0,51,0.00,,,0.00,Weather View 32 v70,2013-06-26 15:47:00,
2013-06-26 12:00:00,77.0,57.4,29.12,South,186,0.0,4.0,51,0.00,,,0.00,Weather View 32 v70,2013-06-26 16:00:00,
2013-06-26 12:10:00,77.9,57.1,29.09,SSW,197,0.0,4.0,49,0.00,,,0.00,Weather View 32 v70,2013-06-26 16:10:00,
2013-06-26 12:20:00,78.8,57.4,29.09,ESE,118,0.0,4.0,48,0.00,,,0.00,Weather View 32 v70,2013-06-26 16:20:00,
2013-06-26 12:30:00,80.6,56.6,29.12,WNW,303,0.0,4.0,44,0.00,,,0.00,Weather View 32 v70,2013-06-26 16:30:00,
2013-06-26 12:39:00,78.8,56.2,29.12,SSW,207,0.0,4.0,46,0.00,,,0.00,Weather View 32 v70,2013-06-26 16:39:00,
2013-06-26 12:48:00,78.8,56.2,29.12,SSW,207,0.0,4.0,46,0.00,,,0.00,Weather View 32 v70,2013-06-26 16:48:00,
2013-06-26 13:00:00,78.4,57.6,29.09,SSW,193,0.0,4.0,49,0.00,,,0.00,Weather View 32 v70,2013-06-26 17:00:00,
2013-06-26 13:10:00,77.9,58.8,29.12,SSW,193,0.0,3.0,52,0.00,,,0.00,Weather View 32 v70,2013-06-26 17:10:00,
2013-06-26 13:20:00,77.4,57.8,29.12,SSW,207,0.0,4.0,51,0.00,,,0.00,Weather View 32 v70,2013-06-26 17:20:00,
2013-06-26 13:30:00,80.6,59.0,29.12,SSW,207,0.0,4.0,48,0.00,,,0.00,Weather View 32 v70,2013-06-26 17:30:00,
2013-06-26 13:40:00,80.6,57.8,29.09,SW,236,0.0,4.0,46,0.00,,,0.00,Weather View 32 v70,2013-06-26 17:40:00,
2013-06-26 13:49:00,80.6,57.8,29.09,SW,236,0.0,4.0,46,0.00,,,0.00,Weather View 32 v70,2013-06-26 17:49:00,
2013-06-26 14:00:00,83.3,56.4,29.09,South,183,0.0,4.0,40,0.00,,,0.00,Weather View 32 v70,2013-06-26 18:00:00,
2013-06-26 14:10:00,82.4,56.9,29.09,South,183,0.0,4.0,42,0.00,,,0.00,Weather View 32 v70,2013-06-26 18:10:00,
2013-06-26 14:20:00,80.2,55.6,29.09,South,183,0.0,4.0,43,0.00,,,0.00,Weather View 32 v70,2013-06-26 18:20:00,
2013-06-26 14:30:00,80.4,57.1,29.06,South,183,0.0,4.0,45,0.00,,,0.00,Weather View 32 v70,2013-06-26 18:30:00,
2013-06-26 14:40:00,81.7,56.9,29.06,South,183,0.0,3.0,43,0.00,,,0.00,Weather View 32 v70,2013-06-26 18:40:00,
2013-06-26 14:50:00,82.9,56.1,29.06,ESE,118,0.0,3.0,40,0.00,,,0.00,Weather View 32 v70,2013-06-26 18:50:00,
2013-06-26 15:00:00,82.2,56.8,29.06,ESE,119,0.0,3.0,42,0.00,,,0.00,Weather View 32 v70,2013-06-26 19:00:00,
2013-06-26 15:10:00,82.2,58.1,29.06,SSW,198,0.0,4.0,44,0.00,,,0.00,Weather View 32 v70,2013-06-26 19:10:00,
2013-06-26 15:20:00,83.5,57.2,29.06,ESE,105,0.0,4.0,41,0.00,,,0.00,Weather View 32 v70,2013-06-26 19:20:00,
2013-06-26 15:30:00,82.8,56.6,29.06,SE,137,0.0,4.0,41,0.00,,,0.00,Weather View 32 v70,2013-06-26 19:30:00,
2013-06-26 15:40:00,81.7,56.9,29.06,SSW,209,0.0,4.0,43,0.00,,,0.00,Weather View 32 v70,2013-06-26 19:40:00,
2013-06-26 15:50:00,79.7,57.0,29.06,SSW,209,0.0,4.0,46,0.00,,,0.00,Weather View 32 v70,2013-06-26 19:50:00,
2013-06-26 16:00:00,79.3,58.5,29.06,SSW,206,3.0,4.0,49,0.00,,,0.00,Weather View 32 v70,2013-06-26 20:00:00,
2013-06-26 16:10:00,79.7,61.5,29.06,SSW,192,0.0,4.0,54,0.00,,,0.00,Weather View 32 v70,2013-06-26 20:10:00,
2013-06-26 16:20:00,79.3,58.5,29.06,SSW,192,0.0,4.0,49,0.00,,,0.00,Weather View 32 v70,2013-06-26 20:20:00,
2013-06-26 16:30:00,80.1,59.1,29.06,WNW,298,0.0,4.0,49,0.00,,,0.00,Weather View 32 v70,2013-06-26 20:30:00,
2013-06-26 16:40:00,80.6,57.8,29.06,NNW,340,0.0,4.0,46,0.00,,,0.00,Weather View 32 v70,2013-06-26 20:40:00,
2013-06-26 16:50:00,80.1,59.1,29.06,NNW,334,0.0,4.0,49,0.00,,,0.00,Weather View 32 v70,2013-06-26 20:50:00,
2013-06-26 17:00:00,79.7,58.8,29.06,NNW,334,0.0,3.0,49,0.00,,,0.00,Weather View 32 v70,2013-06-26 21:00:00,
2013-06-26 17:10:00,79.7,60.5,29.03,NNW,334,0.0,0.0,52,0.00,,,0.00,Weather View 32 v70,2013-06-26 21:10:00,
2013-06-26 17:20:00,79.0,59.8,29.03,NNW,334,0.0,0.0,52,0.00,,,0.00,Weather View 32 v70,2013-06-26 21:20:00,
2013-06-26 17:30:00,79.0,61.4,29.03,NNW,334,0.0,0.0,55,0.00,,,0.00,Weather View 32 v70,2013-06-26 21:30:00,
2013-06-26 17:40:00,78.8,60.2,29.03,SSW,192,0.0,0.0,53,0.00,,,0.00,Weather View 32 v70,2013-06-26 21:40:00,
2013-06-26 17:50:00,79.5,60.8,29.03,SW,230,3.0,3.0,53,0.00,,,0.00,Weather View 32 v70,2013-06-26 21:50:00,
2013-06-26 18:00:00,80.1,58.5,29.03,SSW,199,4.0,4.0,48,0.00,,,0.00,Weather View 32 v70,2013-06-26 22:00:00,
2013-06-26 18:10:00,79.7,58.2,29.03,South,191,0.0,5.0,48,0.00,,,0.00,Weather View 32 v70,2013-06-26 22:10:00,
2013-06-26 18:20:00,79.7,57.6,29.03,South,191,0.0,5.0,47,0.00,,,0.00,Weather View 32 v70,2013-06-26 22:20:00,
2013-06-26 18:30:00,79.9,57.8,29.03,ESE,120,0.0,5.0,47,0.00,,,0.00,Weather View 32 v70,2013-06-26 22:30:00,
2013-06-26 18:40:00,80.1,57.9,29.03,ESE,120,0.0,5.0,47,0.00,,,0.00,Weather View 32 v70,2013-06-26 22:40:00,
2013-06-26 18:50:00,79.2,58.9,29.03,ESE,120,0.0,5.0,50,0.00,,,0.00,Weather View 32 v70,2013-06-26 22:50:00,
2013-06-26 19:00:00,78.6,60.5,29.03,ESE,120,0.0,5.0,54,0.00,,,0.00,Weather View 32 v70,2013-06-26 23:00:00,
2013-06-26 19:09:00,79.0,60.9,29.00,ESE,120,0.0,2.0,54,0.00,,,0.00,Weather View 32 v70,2013-06-26 23:09:00,
2013-06-26 19:20:00,79.0,60.3,29.00,ESE,120,0.0,2.0,53,0.00,,,0.00,Weather View 32 v70,2013-06-26 23:20:00,
2013-06-26 19:30:00,78.6,61.0,29.00,ESE,120,0.0,0.0,55,0.00,,,0.00,Weather View 32 v70,2013-06-26 23:30:00,
2013-06-26 19:40:00,78.4,60.4,29.00,ESE,120,0.0,0.0,54,0.00,,,0.00,Weather View 32 v70,2013-06-26 23:40:00,
2013-06-26 19:50:00,78.3,61.2,29.00,ESE,120,0.0,0.0,56,0.00,,,0.00,Weather View 32 v70,2013-06-26 23:50:00,
2013-06-26 20:00:00,77.9,61.9,29.00,ESE,120,0.0,0.0,58,0.00,,,0.00,Weather View 32 v70,2013-06-27 00:00:00,
2013-06-26 20:10:00,77.7,62.2,29.00,ESE,120,0.0,0.0,59,0.00,,,0.00,Weather View 32 v70,2013-06-27 00:10:00,
2013-06-26 20:19:00,77.5,62.0,29.00,ESE,120,0.0,0.0,59,0.00,,,0.00,Weather View 32 v70,2013-06-27 00:19:00,
2013-06-26 20:30:00,77.5,62.5,29.00,ESE,120,0.0,0.0,60,0.00,,,0.00,Weather View 32 v70,2013-06-27 00:30:00,
2013-06-26 20:40:00,77.0,62.9,29.03,ESE,120,0.0,0.0,62,0.00,,,0.00,Weather View 32 v70,2013-06-27 00:40:00,
2013-06-26 20:50:00,75.7,63.5,29.03,ESE,120,0.0,0.0,66,0.00,,,0.00,Weather View 32 v70,2013-06-27 00:50:00,
2013-06-26 20:55:00,75.7,63.5,29.03,ESE,120,0.0,0.0,66,0.00,,,0.00,Weather View 32 v70,2013-06-27 00:55:00,
2013-06-26 21:10:00,75.2,64.3,29.00,ESE,120,0.0,0.0,69,0.00,,,0.00,Weather View 32 v70,2013-06-27 01:10:00,
2013-06-26 21:20:00,74.5,64.4,29.00,ESE,120,0.0,0.0,71,0.00,,,0.00,Weather View 32 v70,2013-06-27 01:20:00,
2013-06-26 21:30:00,73.9,64.7,29.00,ESE,120,0.0,0.0,73,0.00,,,0.00,Weather View 32 v70,2013-06-27 01:30:00,
2013-06-26 21:39:00,74.1,65.7,29.00,ESE,120,0.0,0.0,75,0.00,,,0.00,Weather View 32 v70,2013-06-27 01:39:00,
2013-06-26 21:50:00,74.3,65.1,29.00,ESE,120,0.0,0.0,73,0.00,,,0.00,Weather View 32 v70,2013-06-27 01:50:00,
2013-06-26 21:55:00,74.3,65.1,29.00,ESE,120,0.0,0.0,73,0.00,,,0.00,Weather View 32 v70,2013-06-27 01:55:00,
2013-06-26 22:10:00,73.2,64.4,29.00,ESE,120,0.0,0.0,74,0.00,,,0.00,Weather View 32 v70,2013-06-27 02:10:00,
2013-06-26 22:20:00,72.7,64.3,29.00,ESE,120,0.0,0.0,75,0.00,,,0.00,Weather View 32 v70,2013-06-27 02:20:00,
2013-06-26 22:30:00,72.3,64.7,29.03,ESE,120,0.0,0.0,77,0.00,,,0.00,Weather View 32 v70,2013-06-27 02:30:00,
2013-06-26 22:40:00,72.7,65.0,29.03,ESE,120,0.0,0.0,77,0.00,,,0.00,Weather View 32 v70,2013-06-27 02:40:00,
2013-06-26 22:49:00,72.7,65.0,29.03,East,92,2.0,2.0,77,0.00,,,0.00,Weather View 32 v70,2013-06-27 02:49:00,
2013-06-26 22:56:00,72.7,65.0,29.03,East,92,2.0,2.0,77,0.00,,,0.00,Weather View 32 v70,2013-06-27 02:56:00,
2013-06-26 23:09:00,72.5,62.5,29.03,ESE,111,0.0,3.0,71,0.00,,,0.00,Weather View 32 v70,2013-06-27 03:09:00,
2013-06-26 23:20:00,72.3,62.0,29.03,ESE,111,0.0,3.0,70,0.00,,,0.00,Weather View 32 v70,2013-06-27 03:20:00,
2013-06-26 23:30:00,72.1,61.4,29.03,ESE,111,0.0,3.0,69,0.00,,,0.00,Weather View 32 v70,2013-06-27 03:30:00,
2013-06-26 23:40:00,71.6,60.4,29.03,ESE,111,0.0,3.0,68,0.00,,,0.00,Weather View 32 v70,2013-06-27 03:40:00,
2013-06-26 23:50:00,71.1,60.3,29.03,ESE,111,0.0,3.0,69,0.00,,,0.00,Weather View 32 v70,2013-06-27 03:50:00,
2013-06-26 23:56:00,71.1,60.3,29.03,ESE,111,0.0,3.0,69,0.00,,,0.00,Weather View 32 v70,2013-06-27 03:56:00,